Time;durP1;ratioP1;P1;durP2;ratioP2;P2;SDS_P1;SDS_P2;PMS_P1;PMS_P2;Temp;Humidity;BMP_temperature;BMP_pressure;BME280_temperature;BME280_humidity;BME280_pressure;Samples;Min_cycle;Max_cycle;Signal;HPM_P1;HPM_P2
2023/03/29 00:00:15;;;;;;;0.60;0.60;;;;;;;;;;5037849;28;20635;-81
2023/03/29 00:02:42;;;;;;;0.60;0.60;;;;;;;;;;5038240;28;20549;-82
2023/03/29 00:05:08;;;;;;;0.60;0.60;;;;;;;;;;5054711;28;20179;-79
2023/03/29 00:07:34;;;;;;;0.60;0.60;;;;;;;;;;5057205;28;20176;-79
2023/03/29 00:10:01;;;;;;;0.80;0.80;;;;;;;;;;5057322;28;20175;-79
2023/03/29 00:12:27;;;;;;;0.77;0.77;;;;;;;;;;5056675;28;20240;-80
2023/03/29 00:14:54;;;;;;;0.57;0.57;;;;;;;;;;5057117;28;20233;-80
2023/03/29 00:17:20;;;;;;;0.80;0.80;;;;;;;;;;5057079;28;20278;-80
2023/03/29 00:19:46;;;;;;;0.70;0.70;;;;;;;;;;5056818;28;20168;-81
2023/03/29 00:22:12;;;;;;;0.70;0.70;;;;;;;;;;5056863;28;20180;-80
2023/03/29 00:24:38;;;;;;;0.60;0.60;;;;;;;;;;5056312;28;20756;-80
2023/03/29 00:27:04;;;;;;;0.60;0.60;;;;;;;;;;5051015;28;20176;-81
2023/03/29 00:29:31;;;;;;;0.60;0.60;;;;;;;;;;5035213;28;20176;-81
2023/03/29 00:31:57;;;;;;;0.50;0.50;;;;;;;;;;5036138;28;20526;-81
2023/03/29 00:34:23;;;;;;;0.70;0.70;;;;;;;;;;5036242;28;20249;-81
2023/03/29 00:36:51;;;;;;;0.70;0.70;;;;;;;;;;5036675;28;20194;-81
2023/03/29 00:39:18;;;;;;;0.70;0.70;;;;;;;;;;5035800;28;20180;-82
2023/03/29 00:41:45;;;;;;;0.70;0.70;;;;;;;;;;5034504;28;20207;-82
2023/03/29 00:44:30;;;;;;;0.70;0.70;;;;;;;;;;5034054;28;20221;-81
2023/03/29 00:46:56;;;;;;;0.70;0.70;;;;;;;;;;5034416;28;20172;-82
2023/03/29 00:49:22;;;;;;;0.60;0.60;;;;;;;;;;5033938;28;20187;-81
2023/03/29 00:51:48;;;;;;;0.80;0.80;;;;;;;;;;5034733;28;20175;-81
2023/03/29 00:54:17;;;;;;;0.70;0.70;;;;;;;;;;5034112;28;20373;-81
2023/03/29 00:56:44;;;;;;;0.70;0.70;;;;;;;;;;5034772;28;20207;-81
2023/03/29 00:59:11;;;;;;;0.60;0.60;;;;;;;;;;5034635;28;20186;-81
2023/03/29 01:01:43;;;;;;;0.70;0.70;;;;;;;;;;5037722;28;20505;-80
2023/03/29 01:04:18;;;;;;;0.70;0.70;;;;;;;;;;5042423;28;20298;-80
2023/03/29 01:06:52;;;;;;;0.50;0.50;;;;;;;;;;5041369;28;20179;-80
2023/03/29 01:09:21;;;;;;;0.70;0.70;;;;;;;;;;5044535;28;20188;-81
2023/03/29 01:11:51;;;;;;;0.70;0.70;;;;;;;;;;5049233;28;20223;-80
2023/03/29 01:14:29;;;;;;;0.80;0.80;;;;;;;;;;5055174;28;20207;-80
2023/03/29 01:16:55;;;;;;;0.70;0.70;;;;;;;;;;5056359;28;20176;-81
2023/03/29 01:19:25;;;;;;;0.50;0.50;;;;;;;;;;5055487;28;20199;-80
2023/03/29 01:21:56;;;;;;;0.60;0.60;;;;;;;;;;5054281;28;20192;-79
2023/03/29 01:24:29;;;;;;;0.70;0.70;;;;;;;;;;5051061;28;20219;-80
2023/03/29 01:26:59;;;;;;;0.67;0.67;;;;;;;;;;5040268;28;20175;-80
2023/03/29 01:29:32;;;;;;;0.67;0.67;;;;;;;;;;5035777;28;20516;-82
2023/03/29 01:32:08;;;;;;;0.80;0.80;;;;;;;;;;5035717;28;20174;-81
2023/03/29 01:34:38;;;;;;;0.60;0.60;;;;;;;;;;5038285;28;20663;-81
2023/03/29 01:37:17;;;;;;;0.70;0.70;;;;;;;;;;5041293;28;20229;-80
2023/03/29 01:39:43;;;;;;;0.80;0.80;;;;;;;;;;5041598;28;20184;-81
2023/03/29 01:42:27;;;;;;;0.70;0.70;;;;;;;;;;5044095;28;20255;-82
2023/03/29 01:44:59;;;;;;;0.60;0.60;;;;;;;;;;5041469;28;20619;-81
2023/03/29 01:47:26;;;;;;;0.60;0.60;;;;;;;;;;5041689;28;20378;-81
2023/03/29 01:49:55;;;;;;;0.70;0.70;;;;;;;;;;5041971;28;20238;-81
2023/03/29 01:52:27;;;;;;;0.60;0.60;;;;;;;;;;5041023;28;20228;-80
2023/03/29 01:55:00;;;;;;;0.77;0.77;;;;;;;;;;5042429;28;20215;-81
2023/03/29 01:57:26;;;;;;;0.60;0.60;;;;;;;;;;5041510;28;20200;-82
2023/03/29 01:59:54;;;;;;;0.60;0.60;;;;;;;;;;5041515;28;20509;-81
2023/03/29 02:02:21;;;;;;;0.90;0.90;;;;;;;;;;5040937;28;20235;-81
2023/03/29 02:04:50;;;;;;;0.80;0.80;;;;;;;;;;5040577;28;20196;-81
2023/03/29 02:07:18;;;;;;;0.80;0.80;;;;;;;;;;5040268;28;20275;-80
2023/03/29 02:09:44;;;;;;;0.80;0.80;;;;;;;;;;5040521;28;20187;-82
2023/03/29 02:12:11;;;;;;;0.80;0.80;;;;;;;;;;5039596;28;20279;-81
2023/03/29 02:14:37;;;;;;;0.80;0.80;;;;;;;;;;5024936;28;20243;-81
2023/03/29 02:17:24;;;;;;;0.70;0.70;;;;;;;;;;5019911;28;20173;-81
2023/03/29 02:19:54;;;;;;;0.70;0.70;;;;;;;;;;5021247;28;20180;-81
2023/03/29 02:22:28;;;;;;;0.70;0.70;;;;;;;;;;5021178;28;20169;-80
2023/03/29 02:24:57;;;;;;;0.63;0.63;;;;;;;;;;5021485;28;20180;-82
2023/03/29 02:27:24;;;;;;;0.60;0.60;;;;;;;;;;5021377;28;20204;-82
2023/03/29 02:29:50;;;;;;;0.80;0.80;;;;;;;;;;5021470;28;20172;-81
2023/03/29 02:32:19;;;;;;;0.60;0.60;;;;;;;;;;5021233;28;20180;-81
2023/03/29 02:34:49;;;;;;;0.70;0.70;;;;;;;;;;5021233;28;20220;-82
2023/03/29 02:37:17;;;;;;;0.70;0.70;;;;;;;;;;5021890;28;20192;-81
2023/03/29 02:39:46;;;;;;;0.60;0.60;;;;;;;;;;5033815;28;20316;-80
2023/03/29 02:42:13;;;;;;;0.60;0.60;;;;;;;;;;5035958;28;20189;-80
2023/03/29 02:44:40;;;;;;;0.60;0.60;;;;;;;;;;5036023;28;20208;-80
2023/03/29 02:47:10;;;;;;;0.70;0.70;;;;;;;;;;5037060;28;20176;-80
2023/03/29 02:49:36;;;;;;;0.70;0.70;;;;;;;;;;5037313;28;20181;-80
2023/03/29 02:52:06;;;;;;;0.70;0.70;;;;;;;;;;5037218;28;20172;-81
2023/03/29 02:54:32;;;;;;;0.60;0.60;;;;;;;;;;5036565;28;20209;-81
2023/03/29 02:56:59;;;;;;;0.73;0.73;;;;;;;;;;5037045;28;20169;-80
2023/03/29 02:59:28;;;;;;;0.60;0.60;;;;;;;;;;5037117;28;20176;-81
2023/03/29 03:01:54;;;;;;;0.60;0.60;;;;;;;;;;5035808;28;20172;-79
2023/03/29 03:04:20;;;;;;;0.70;0.70;;;;;;;;;;5035576;28;20242;-80
2023/03/29 03:06:48;;;;;;;0.70;0.70;;;;;;;;;;5036117;28;20256;-81
2023/03/29 03:09:14;;;;;;;0.80;0.80;;;;;;;;;;5036137;28;20198;-80
2023/03/29 03:11:41;;;;;;;0.70;0.70;;;;;;;;;;5035581;28;20179;-81
2023/03/29 03:14:07;;;;;;;0.70;0.70;;;;;;;;;;5025002;28;20223;-82
2023/03/29 03:16:33;;;;;;;0.70;0.70;;;;;;;;;;5020638;28;20179;-81
2023/03/29 03:18:59;;;;;;;0.60;0.60;;;;;;;;;;5020164;28;20588;-82
2023/03/29 03:21:27;;;;;;;0.60;0.60;;;;;;;;;;5020222;28;20223;-82
2023/03/29 03:23:53;;;;;;;0.70;0.70;;;;;;;;;;5019212;28;20197;-81
2023/03/29 03:26:19;;;;;;;0.60;0.60;;;;;;;;;;5019093;28;20177;-82
2023/03/29 03:28:45;;;;;;;0.70;0.70;;;;;;;;;;5020059;28;20622;-81
2023/03/29 03:31:16;;;;;;;0.70;0.70;;;;;;;;;;5019734;28;20172;-81
2023/03/29 03:33:42;;;;;;;0.70;0.70;;;;;;;;;;5017743;28;20224;-81
2023/03/29 03:36:09;;;;;;;0.70;0.70;;;;;;;;;;5018975;28;20274;-82
2023/03/29 03:38:36;;;;;;;0.60;0.60;;;;;;;;;;5019124;28;20554;-81
2023/03/29 03:41:02;;;;;;;0.60;0.60;;;;;;;;;;5018465;28;20179;-81
2023/03/29 03:43:28;;;;;;;0.60;0.60;;;;;;;;;;5019609;28;20205;-82
2023/03/29 03:45:55;;;;;;;0.70;0.70;;;;;;;;;;5019365;28;20204;-81
2023/03/29 03:48:21;;;;;;;0.70;0.70;;;;;;;;;;5018974;28;20184;-82
2023/03/29 03:50:52;;;;;;;0.60;0.60;;;;;;;;;;5019053;28;20185;-80
2023/03/29 03:53:18;;;;;;;0.60;0.60;;;;;;;;;;5017582;28;20763;-82
2023/03/29 03:55:52;;;;;;;0.70;0.70;;;;;;;;;;5018481;28;20199;-81
2023/03/29 03:58:18;;;;;;;0.63;0.63;;;;;;;;;;5019121;28;20267;-82
2023/03/29 04:00:46;;;;;;;0.63;0.63;;;;;;;;;;5019731;28;20184;-82
2023/03/29 04:03:12;;;;;;;0.60;0.60;;;;;;;;;;5019159;28;20204;-81
2023/03/29 04:05:39;;;;;;;0.60;0.60;;;;;;;;;;5018753;28;20262;-82
2023/03/29 04:08:05;;;;;;;0.63;0.63;;;;;;;;;;5018514;28;20636;-82
2023/03/29 04:10:32;;;;;;;0.60;0.60;;;;;;;;;;5018402;28;20674;-81
2023/03/29 04:13:01;;;;;;;0.60;0.60;;;;;;;;;;5017670;28;20314;-82
2023/03/29 04:15:27;;;;;;;0.73;0.73;;;;;;;;;;5018142;28;20588;-81
2023/03/29 04:17:54;;;;;;;0.70;0.70;;;;;;;;;;5018395;28;20192;-80
2023/03/29 04:20:20;;;;;;;0.80;0.80;;;;;;;;;;5018020;28;20261;-80
2023/03/29 04:22:46;;;;;;;0.60;0.60;;;;;;;;;;5017395;28;20229;-81
2023/03/29 04:25:12;;;;;;;0.70;0.70;;;;;;;;;;5018086;28;20231;-81
2023/03/29 04:27:39;;;;;;;0.60;0.60;;;;;;;;;;5017603;28;20182;-80
2023/03/29 04:30:06;;;;;;;0.50;0.50;;;;;;;;;;5018299;28;20165;-82
2023/03/29 04:32:32;;;;;;;0.70;0.70;;;;;;;;;;5018878;28;20188;-81
2023/03/29 04:34:58;;;;;;;0.73;0.73;;;;;;;;;;5018321;28;20215;-80
2023/03/29 04:37:24;;;;;;;0.80;0.80;;;;;;;;;;5018280;28;20188;-82
2023/03/29 04:39:51;;;;;;;0.60;0.60;;;;;;;;;;5018643;28;20271;-82
2023/03/29 04:42:18;;;;;;;0.67;0.67;;;;;;;;;;5017882;28;20188;-82
2023/03/29 04:44:43;;;;;;;0.70;0.70;;;;;;;;;;5017459;28;20204;-83
2023/03/29 04:47:13;;;;;;;0.70;0.70;;;;;;;;;;5018797;28;20272;-82
2023/03/29 04:49:40;;;;;;;0.70;0.70;;;;;;;;;;5019269;28;20191;-82
2023/03/29 04:52:06;;;;;;;0.70;0.70;;;;;;;;;;5019650;28;20263;-82
2023/03/29 04:54:32;;;;;;;0.60;0.60;;;;;;;;;;5018934;28;20652;-82
2023/03/29 04:56:58;;;;;;;0.70;0.70;;;;;;;;;;5025639;28;20252;-83
2023/03/29 04:59:24;;;;;;;0.70;0.70;;;;;;;;;;5027687;28;20188;-81
2023/03/29 05:01:53;;;;;;;0.77;0.77;;;;;;;;;;5026448;28;20263;-81
2023/03/29 05:04:19;;;;;;;0.60;0.60;;;;;;;;;;5029192;28;20196;-82
2023/03/29 05:06:46;;;;;;;0.70;0.70;;;;;;;;;;5029200;28;20199;-82
2023/03/29 05:09:12;;;;;;;0.60;0.60;;;;;;;;;;5027777;28;20180;-80
2023/03/29 05:11:37;;;;;;;0.60;0.60;;;;;;;;;;5032314;28;20161;-83
2023/03/29 05:14:06;;;;;;;0.53;0.53;;;;;;;;;;5034496;28;20251;-83
2023/03/29 05:16:33;;;;;;;0.67;0.67;;;;;;;;;;5035090;28;20168;-84
2023/03/29 05:18:59;;;;;;;0.70;0.70;;;;;;;;;;5029104;28;20637;-81
2023/03/29 05:21:27;;;;;;;0.60;0.60;;;;;;;;;;5017754;28;20599;-81
2023/03/29 05:23:53;;;;;;;0.80;0.80;;;;;;;;;;5019162;28;20188;-82
2023/03/29 05:26:20;;;;;;;0.67;0.67;;;;;;;;;;5018107;28;20183;-81
2023/03/29 05:28:46;;;;;;;0.60;0.60;;;;;;;;;;5016713;28;20240;-82
2023/03/29 05:31:12;;;;;;;0.70;0.70;;;;;;;;;;5017888;28;20257;-82
2023/03/29 05:33:39;;;;;;;0.60;0.60;;;;;;;;;;5016470;28;20227;-81
2023/03/29 05:36:06;;;;;;;0.60;0.60;;;;;;;;;;5017397;28;20480;-82
2023/03/29 05:38:33;;;;;;;0.60;0.60;;;;;;;;;;5017615;28;20180;-81
2023/03/29 05:40:59;;;;;;;0.70;0.70;;;;;;;;;;5018176;28;20185;-82
2023/03/29 05:43:26;;;;;;;0.60;0.60;;;;;;;;;;5017688;28;20573;-81
2023/03/29 05:45:53;;;;;;;0.60;0.60;;;;;;;;;;5017885;28;20256;-81
2023/03/29 05:48:19;;;;;;;0.50;0.50;;;;;;;;;;5018653;28;20179;-82
2023/03/29 05:50:48;;;;;;;0.60;0.60;;;;;;;;;;5017846;28;20212;-81
2023/03/29 05:53:15;;;;;;;0.60;0.60;;;;;;;;;;5017818;28;20544;-81
2023/03/29 05:55:41;;;;;;;0.70;0.70;;;;;;;;;;5017781;28;20594;-82
2023/03/29 05:58:07;;;;;;;0.70;0.70;;;;;;;;;;5017342;28;20185;-81
2023/03/29 06:00:35;;;;;;;0.63;0.63;;;;;;;;;;5017502;28;20202;-81
2023/03/29 06:03:01;;;;;;;0.70;0.70;;;;;;;;;;5017419;28;20199;-81
2023/03/29 06:05:28;;;;;;;0.60;0.60;;;;;;;;;;5017938;28;20650;-82
2023/03/29 06:07:55;;;;;;;0.60;0.60;;;;;;;;;;5017663;28;20239;-81
2023/03/29 06:10:22;;;;;;;0.60;0.60;;;;;;;;;;5017050;28;20176;-80
2023/03/29 06:12:48;;;;;;;0.60;0.60;;;;;;;;;;5016397;28;20263;-81
2023/03/29 06:15:14;;;;;;;0.60;0.60;;;;;;;;;;5016909;28;20231;-82
2023/03/29 06:17:40;;;;;;;0.60;0.60;;;;;;;;;;5018017;28;20175;-81
2023/03/29 06:20:09;;;;;;;0.60;0.60;;;;;;;;;;5019022;28;20177;-81
2023/03/29 06:22:36;;;;;;;0.60;0.60;;;;;;;;;;5021373;28;20263;-82
2023/03/29 06:25:06;;;;;;;0.70;0.70;;;;;;;;;;5020176;28;20181;-83
2023/03/29 06:27:32;;;;;;;0.60;0.60;;;;;;;;;;5017744;28;20176;-83
2023/03/29 06:29:59;;;;;;;0.60;0.60;;;;;;;;;;5019258;28;20173;-81
2023/03/29 06:32:25;;;;;;;0.70;0.70;;;;;;;;;;5018839;28;20802;-83
2023/03/29 06:34:51;;;;;;;0.60;0.60;;;;;;;;;;5021423;28;20311;-82
2023/03/29 06:37:17;;;;;;;0.70;0.70;;;;;;;;;;5021901;28;20663;-80
2023/03/29 06:39:43;;;;;;;0.70;0.70;;;;;;;;;;5020409;28;20239;-80
2023/03/29 06:42:09;;;;;;;0.70;0.70;;;;;;;;;;5019181;28;20176;-81
2023/03/29 06:44:36;;;;;;;0.60;0.60;;;;;;;;;;5018503;28;20862;-81
2023/03/29 06:47:03;;;;;;;0.63;0.63;;;;;;;;;;5021592;28;20251;-80
2023/03/29 06:49:29;;;;;;;0.70;0.70;;;;;;;;;;5020884;28;20180;-81
2023/03/29 06:51:55;;;;;;;0.60;0.60;;;;;;;;;;5021238;28;20184;-81
2023/03/29 06:54:22;;;;;;;0.70;0.70;;;;;;;;;;5021830;28;20231;-82
2023/03/29 06:56:48;;;;;;;0.50;0.50;;;;;;;;;;5023735;28;20164;-81
2023/03/29 06:59:14;;;;;;;0.50;0.50;;;;;;;;;;5024490;28;20172;-82
2023/03/29 07:01:41;;;;;;;0.60;0.60;;;;;;;;;;5025103;28;20192;-82
2023/03/29 07:04:08;;;;;;;0.70;0.70;;;;;;;;;;5026251;28;20196;-81
2023/03/29 07:06:35;;;;;;;0.50;0.50;;;;;;;;;;5027136;28;20173;-81
2023/03/29 07:09:05;;;;;;;0.63;0.63;;;;;;;;;;5024645;28;20191;-82
2023/03/29 07:11:32;;;;;;;0.60;0.60;;;;;;;;;;5023533;28;20235;-82
2023/03/29 07:13:58;;;;;;;0.80;0.80;;;;;;;;;;5023042;28;20208;-80
2023/03/29 07:16:24;;;;;;;0.60;0.60;;;;;;;;;;5024998;28;20188;-83
2023/03/29 07:18:51;;;;;;;0.60;0.60;;;;;;;;;;5023556;28;20604;-82
2023/03/29 07:21:16;;;;;;;0.70;0.70;;;;;;;;;;5022570;28;20699;-82
2023/03/29 07:23:43;;;;;;;0.70;0.70;;;;;;;;;;5021733;28;20211;-82
2023/03/29 07:26:09;;;;;;;0.50;0.50;;;;;;;;;;5022860;28;20203;-83
2023/03/29 07:28:38;;;;;;;0.60;0.60;;;;;;;;;;5023180;28;20177;-82
2023/03/29 07:31:05;;;;;;;0.60;0.60;;;;;;;;;;5017019;28;20177;-81
2023/03/29 07:33:31;;;;;;;0.70;0.70;;;;;;;;;;5021920;28;20204;-81
2023/03/29 07:35:58;;;;;;;0.50;0.50;;;;;;;;;;5022126;28;20180;-83
2023/03/29 07:38:24;;;;;;;0.60;0.60;;;;;;;;;;5020509;28;20184;-81
2023/03/29 07:40:50;;;;;;;0.60;0.60;;;;;;;;;;5022963;28;20256;-81
2023/03/29 07:43:17;;;;;;;0.63;0.63;;;;;;;;;;5022216;28;20222;-81
2023/03/29 07:45:43;;;;;;;0.60;0.60;;;;;;;;;;5023120;28;20177;-82
2023/03/29 07:48:09;;;;;;;0.60;0.60;;;;;;;;;;5022095;28;20183;-81
2023/03/29 07:50:35;;;;;;;0.60;0.60;;;;;;;;;;5023045;28;20207;-80
2023/03/29 07:53:02;;;;;;;0.50;0.50;;;;;;;;;;5021696;28;20426;-81
2023/03/29 07:55:28;;;;;;;0.60;0.60;;;;;;;;;;5022561;28;20478;-81
2023/03/29 07:57:54;;;;;;;0.50;0.50;;;;;;;;;;5023045;28;20248;-83
2023/03/29 08:00:21;;;;;;;0.70;0.70;;;;;;;;;;5022628;28;20180;-84
2023/03/29 08:02:48;;;;;;;0.60;0.60;;;;;;;;;;5025297;28;20192;-81
2023/03/29 08:05:15;;;;;;;0.50;0.50;;;;;;;;;;5025748;28;20620;-81
2023/03/29 08:07:43;;;;;;;0.50;0.50;;;;;;;;;;5028523;28;20210;-82
2023/03/29 08:10:10;;;;;;;0.50;0.50;;;;;;;;;;5039710;28;20239;-81
2023/03/29 08:12:37;;;;;;;0.60;0.60;;;;;;;;;;5025463;28;20171;-81
2023/03/29 08:15:04;;;;;;;0.70;0.70;;;;;;;;;;5025962;28;20607;-83
2023/03/29 08:17:30;;;;;;;0.40;0.40;;;;;;;;;;5024707;28;20173;-81
2023/03/29 08:19:56;;;;;;;0.50;0.50;;;;;;;;;;5024191;28;20177;-81
2023/03/29 08:22:22;;;;;;;0.70;0.70;;;;;;;;;;5024515;28;20181;-80
2023/03/29 08:24:48;;;;;;;0.57;0.57;;;;;;;;;;5024179;28;20196;-80
2023/03/29 08:27:16;;;;;;;0.50;0.50;;;;;;;;;;5024438;28;20243;-81
2023/03/29 08:29:42;;;;;;;0.40;0.40;;;;;;;;;;5023717;28;20205;-80
2023/03/29 08:32:08;;;;;;;0.50;0.50;;;;;;;;;;5025709;28;20184;-80
2023/03/29 08:34:35;;;;;;;0.70;0.70;;;;;;;;;;5026878;28;20290;-81
2023/03/29 08:37:02;;;;;;;0.57;0.57;;;;;;;;;;5036422;28;20184;-81
2023/03/29 08:39:28;;;;;;;0.50;0.50;;;;;;;;;;5022692;28;20184;-81
2023/03/29 08:42:08;;;;;;;0.50;0.50;;;;;;;;;;5034777;28;20176;-83
2023/03/29 08:44:37;;;;;;;0.50;0.50;;;;;;;;;;5028931;28;20272;-80
2023/03/29 08:47:10;;;;;;;0.57;0.57;;;;;;;;;;5033311;28;20235;-81
2023/03/29 08:49:37;;;;;;;0.60;0.60;;;;;;;;;;5045770;28;20164;-82
2023/03/29 08:52:04;;;;;;;0.60;0.60;;;;;;;;;;5032684;28;20198;-82
2023/03/29 08:54:36;;;;;;;0.50;0.50;;;;;;;;;;5027764;28;20208;-82
2023/03/29 08:57:10;;;;;;;0.50;0.50;;;;;;;;;;5031686;28;20182;-84
2023/03/29 08:59:36;;;;;;;0.60;0.60;;;;;;;;;;5030101;28;20177;-83
2023/03/29 09:02:04;;;;;;;0.50;0.50;;;;;;;;;;5028263;28;20240;-84
2023/03/29 09:04:36;;;;;;;0.50;0.50;;;;;;;;;;5037660;28;20265;-83
2023/03/29 09:07:03;;;;;;;0.60;0.60;;;;;;;;;;5017131;28;20240;-83
2023/03/29 09:09:31;;;;;;;0.60;0.60;;;;;;;;;;5030691;28;20782;-83
2023/03/29 09:11:57;;;;;;;0.50;0.50;;;;;;;;;;5035922;28;20195;-82
2023/03/29 09:14:23;;;;;;;0.60;0.60;;;;;;;;;;5025171;28;20338;-82
2023/03/29 09:16:56;;;;;;;0.60;0.60;;;;;;;;;;5030200;28;20180;-81
2023/03/29 09:19:44;;;;;;;0.60;0.60;;;;;;;;;;5022963;28;20204;-81
2023/03/29 09:22:10;;;;;;;0.60;0.60;;;;;;;;;;5033527;28;20176;-81
2023/03/29 09:24:55;;;;;;;0.70;0.70;;;;;;;;;;5034049;28;20235;-82
2023/03/29 09:27:27;;;;;;;0.70;0.70;;;;;;;;;;5024709;28;20187;-84
2023/03/29 09:30:04;;;;;;;0.70;0.70;;;;;;;;;;5033662;28;20183;-81
2023/03/29 09:32:34;;;;;;;0.70;0.70;;;;;;;;;;5036177;28;20180;-80
2023/03/29 09:35:13;;;;;;;0.67;0.67;;;;;;;;;;5037646;28;20208;-82
2023/03/29 09:37:40;;;;;;;0.60;0.60;;;;;;;;;;5041746;28;20207;-80
2023/03/29 09:40:15;;;;;;;0.70;0.70;;;;;;;;;;5036270;28;20187;-82
2023/03/29 09:42:41;;;;;;;0.50;0.50;;;;;;;;;;5031289;28;20171;-82
2023/03/29 09:45:07;;;;;;;0.60;0.60;;;;;;;;;;5029719;28;20173;-82
2023/03/29 09:47:34;;;;;;;0.67;0.67;;;;;;;;;;5026457;28;20220;-81
2023/03/29 09:50:11;;;;;;;0.50;0.50;;;;;;;;;;5015185;28;20203;-83
2023/03/29 09:52:37;;;;;;;0.50;0.50;;;;;;;;;;5026827;28;20184;-82
2023/03/29 09:55:05;;;;;;;0.50;0.50;;;;;;;;;;5044076;28;20207;-82
2023/03/29 09:57:31;;;;;;;0.60;0.60;;;;;;;;;;5032505;28;20180;-81
2023/03/29 09:59:58;;;;;;;0.50;0.50;;;;;;;;;;5035704;28;20173;-84
2023/03/29 10:02:29;;;;;;;0.70;0.70;;;;;;;;;;5029327;28;20184;-82
2023/03/29 10:04:57;;;;;;;0.50;0.50;;;;;;;;;;5041064;28;20184;-82
2023/03/29 10:07:23;;;;;;;0.60;0.60;;;;;;;;;;5031582;28;20184;-83
2023/03/29 10:09:51;;;;;;;0.50;0.50;;;;;;;;;;5046856;28;20173;-82
2023/03/29 10:12:17;;;;;;;0.70;0.70;;;;;;;;;;5048553;28;20218;-81
2023/03/29 10:14:51;;;;;;;0.60;0.60;;;;;;;;;;5035159;28;20211;-82
2023/03/29 10:17:22;;;;;;;0.50;0.50;;;;;;;;;;5013532;28;20187;-81
2023/03/29 10:19:55;;;;;;;0.50;0.50;;;;;;;;;;5034626;28;20204;-81
2023/03/29 10:22:23;;;;;;;0.50;0.50;;;;;;;;;;5014027;28;20173;-81
2023/03/29 10:24:50;;;;;;;0.30;0.30;;;;;;;;;;5037131;28;20283;-81
2023/03/29 10:27:18;;;;;;;0.40;0.40;;;;;;;;;;5027791;28;20184;-82
2023/03/29 10:29:45;;;;;;;0.40;0.40;;;;;;;;;;5035977;28;20177;-81
2023/03/29 10:32:15;;;;;;;0.50;0.50;;;;;;;;;;5032920;28;20175;-81
2023/03/29 10:34:42;;;;;;;0.50;0.50;;;;;;;;;;5042155;28;20204;-82
2023/03/29 10:37:08;;;;;;;0.40;0.40;;;;;;;;;;5030156;28;20187;-81
2023/03/29 10:39:35;;;;;;;0.50;0.50;;;;;;;;;;5038784;28;20190;-82
2023/03/29 10:42:02;;;;;;;0.50;0.50;;;;;;;;;;5043385;28;20196;-80
2023/03/29 10:44:32;;;;;;;0.60;0.60;;;;;;;;;;5050765;28;20195;-80
2023/03/29 10:47:27;;;;;;;0.60;0.60;;;;;;;;;;5057450;28;20160;-80
2023/03/29 10:49:54;;;;;;;0.50;0.50;;;;;;;;;;5025124;28;20197;-80
2023/03/29 10:52:20;;;;;;;0.50;0.50;;;;;;;;;;5019319;28;20251;-81
2023/03/29 10:54:47;;;;;;;0.30;0.30;;;;;;;;;;5024804;28;20342;-81
2023/03/29 10:57:16;;;;;;;0.40;0.40;;;;;;;;;;5020639;28;20268;-82
2023/03/29 10:59:48;;;;;;;0.50;0.50;;;;;;;;;;5024777;28;20181;-84
2023/03/29 11:02:15;;;;;;;0.50;0.50;;;;;;;;;;5014680;28;20173;-82
2023/03/29 11:05:06;;;;;;;0.40;0.40;;;;;;;;;;5001867;28;20671;-81
2023/03/29 11:07:34;;;;;;;0.40;0.40;;;;;;;;;;5001571;28;20182;-82
2023/03/29 11:10:06;;;;;;;0.27;0.27;;;;;;;;;;5004852;28;20181;-82
2023/03/29 11:12:51;;;;;;;0.40;0.40;;;;;;;;;;5020647;28;20188;-83
2023/03/29 11:15:19;;;;;;;0.30;0.30;;;;;;;;;;5021813;28;20215;-81
2023/03/29 11:17:49;;;;;;;0.50;0.50;;;;;;;;;;5021545;28;20263;-81
2023/03/29 11:20:16;;;;;;;0.33;0.33;;;;;;;;;;5023877;28;20208;-81
2023/03/29 11:22:48;;;;;;;0.30;0.30;;;;;;;;;;5020071;28;20546;-82
2023/03/29 11:25:20;;;;;;;0.37;0.37;;;;;;;;;;5017659;28;20189;-83
2023/03/29 11:28:02;;;;;;;0.50;0.50;;;;;;;;;;5018478;28;20185;-83
2023/03/29 11:30:32;;;;;;;0.30;0.30;;;;;;;;;;5006874;28;20192;-85
2023/03/29 11:33:00;;;;;;;0.37;0.37;;;;;;;;;;5018654;28;20326;-82
2023/03/29 11:35:37;;;;;;;0.30;0.30;;;;;;;;;;5028349;28;20223;-83
2023/03/29 11:38:04;;;;;;;0.40;0.40;;;;;;;;;;5020926;28;20192;-84
2023/03/29 11:40:48;;;;;;;0.30;0.30;;;;;;;;;;5024101;28;20562;-83
2023/03/29 11:43:19;;;;;;;0.50;0.50;;;;;;;;;;5014473;28;20203;-82
2023/03/29 11:45:48;;;;;;;0.30;0.30;;;;;;;;;;5012232;28;20173;-82
2023/03/29 11:48:18;;;;;;;0.40;0.40;;;;;;;;;;5014718;28;20254;-82
2023/03/29 11:50:52;;;;;;;0.50;0.50;;;;;;;;;;5020600;28;20671;-80
2023/03/29 11:53:24;;;;;;;0.47;0.47;;;;;;;;;;5019589;28;20192;-83
2023/03/29 11:55:51;;;;;;;0.40;0.40;;;;;;;;;;5025342;28;20184;-82
2023/03/29 11:58:29;;;;;;;0.50;0.50;;;;;;;;;;5017984;28;20191;-85
2023/03/29 12:01:01;;;;;;;0.47;0.47;;;;;;;;;;5017159;28;20184;-82
2023/03/29 12:03:45;;;;;;;0.60;0.60;;;;;;;;;;5016375;28;20480;-83
2023/03/29 12:06:26;;;;;;;0.50;0.50;;;;;;;;;;5017650;28;20238;-82
2023/03/29 12:08:55;;;;;;;0.33;0.33;;;;;;;;;;5003906;28;20176;-82
2023/03/29 12:11:21;;;;;;;0.30;0.30;;;;;;;;;;5025789;28;20721;-82
2023/03/29 12:13:54;;;;;;;0.50;0.50;;;;;;;;;;5027184;28;20199;-82
2023/03/29 12:16:25;;;;;;;0.40;0.40;;;;;;;;;;5013445;28;20679;-82
2023/03/29 12:18:53;;;;;;;0.30;0.30;;;;;;;;;;5013730;28;20184;-82
2023/03/29 12:21:21;;;;;;;0.50;0.50;;;;;;;;;;4998850;28;20181;-82
2023/03/29 12:23:47;;;;;;;0.40;0.40;;;;;;;;;;4998173;28;20248;-83
2023/03/29 12:26:33;;;;;;;0.40;0.40;;;;;;;;;;4999282;28;20224;-84
2023/03/29 12:28:59;;;;;;;0.50;0.50;;;;;;;;;;5003831;28;20215;-84
2023/03/29 12:31:25;;;;;;;0.60;0.60;;;;;;;;;;5015220;28;20188;-83
2023/03/29 12:33:51;;;;;;;0.40;0.40;;;;;;;;;;5017107;28;20706;-83
2023/03/29 12:36:29;;;;;;;0.50;0.50;;;;;;;;;;5018104;28;20203;-81
2023/03/29 12:38:55;;;;;;;0.50;0.50;;;;;;;;;;5018184;28;20279;-82
2023/03/29 12:41:22;;;;;;;0.40;0.40;;;;;;;;;;5018536;28;20188;-83
2023/03/29 12:43:48;;;;;;;0.30;0.30;;;;;;;;;;5017471;28;20204;-83
2023/03/29 12:46:24;;;;;;;0.40;0.40;;;;;;;;;;5018099;28;20223;-83
2023/03/29 12:48:54;;;;;;;0.50;0.50;;;;;;;;;;5017841;28;20183;-82
2023/03/29 12:51:22;;;;;;;0.50;0.50;;;;;;;;;;5018540;28;20179;-82
2023/03/29 12:53:50;;;;;;;0.33;0.33;;;;;;;;;;5017572;28;20208;-83
2023/03/29 12:56:17;;;;;;;0.40;0.40;;;;;;;;;;5018514;28;20203;-84
2023/03/29 12:58:53;;;;;;;0.60;0.60;;;;;;;;;;5017751;28;20270;-82
2023/03/29 13:01:27;;;;;;;0.47;0.47;;;;;;;;;;5015793;28;20192;-83
2023/03/29 13:03:59;;;;;;;0.47;0.47;;;;;;;;;;5009628;28;20265;-84
2023/03/29 13:06:33;;;;;;;0.50;0.50;;;;;;;;;;5018773;28;20177;-82
2023/03/29 13:09:04;;;;;;;0.53;0.53;;;;;;;;;;5033343;28;20172;-83
2023/03/29 13:11:34;;;;;;;0.60;0.60;;;;;;;;;;5031013;28;20187;-81
2023/03/29 13:14:02;;;;;;;0.40;0.40;;;;;;;;;;5031035;28;20228;-85
2023/03/29 13:16:32;;;;;;;0.40;0.40;;;;;;;;;;5004779;28;20184;-81
2023/03/29 13:19:01;;;;;;;0.53;0.53;;;;;;;;;;5013479;28;20516;-81
2023/03/29 13:21:34;;;;;;;0.40;0.40;;;;;;;;;;5034797;28;20251;-81
2023/03/29 13:24:00;;;;;;;0.60;0.60;;;;;;;;;;5035578;28;20188;-82
2023/03/29 13:26:45;;;;;;;0.40;0.40;;;;;;;;;;5018795;28;20206;-81
2023/03/29 13:29:29;;;;;;;0.50;0.50;;;;;;;;;;5034607;28;20243;-81
2023/03/29 13:31:59;;;;;;;0.50;0.50;;;;;;;;;;5022182;28;20228;-83
2023/03/29 13:34:38;;;;;;;0.50;0.50;;;;;;;;;;5017444;28;20279;-82
2023/03/29 13:37:04;;;;;;;0.40;0.40;;;;;;;;;;5013706;28;20188;-81
2023/03/29 13:39:33;;;;;;;0.40;0.40;;;;;;;;;;5020403;28;20539;-82
2023/03/29 13:42:07;;;;;;;0.40;0.40;;;;;;;;;;5015881;28;20266;-83
2023/03/29 13:44:43;;;;;;;0.30;0.30;;;;;;;;;;5029929;28;20289;-85
2023/03/29 13:47:18;;;;;;;0.40;0.40;;;;;;;;;;5017661;28;20912;-83
2023/03/29 13:49:49;;;;;;;0.23;0.23;;;;;;;;;;5011242;28;20258;-82
2023/03/29 13:52:19;;;;;;;0.30;0.30;;;;;;;;;;5014399;28;20193;-84
2023/03/29 13:55:04;;;;;;;0.40;0.40;;;;;;;;;;5009676;28;20266;-83
2023/03/29 13:57:40;;;;;;;0.40;0.40;;;;;;;;;;5021183;28;20263;-83
2023/03/29 14:00:16;;;;;;;0.40;0.40;;;;;;;;;;5026879;28;20184;-84
2023/03/29 14:02:42;;;;;;;0.50;0.50;;;;;;;;;;5028945;28;20176;-82
2023/03/29 14:05:11;;;;;;;0.50;0.50;;;;;;;;;;5025626;28;20327;-83
2023/03/29 14:07:38;;;;;;;0.50;0.50;;;;;;;;;;5031735;28;20228;-83
2023/03/29 14:10:05;;;;;;;0.50;0.50;;;;;;;;;;5021220;28;20250;-82
2023/03/29 14:12:35;;;;;;;0.40;0.40;;;;;;;;;;5025464;28;20180;-83
2023/03/29 14:15:03;;;;;;;0.57;0.57;;;;;;;;;;5025573;28;20208;-81
2023/03/29 14:17:29;;;;;;;0.40;0.40;;;;;;;;;;5026818;28;20314;-82
2023/03/29 14:20:00;;;;;;;0.50;0.50;;;;;;;;;;5020057;28;20203;-83
2023/03/29 14:22:30;;;;;;;0.50;0.50;;;;;;;;;;5021782;28;20581;-83
2023/03/29 14:25:00;;;;;;;0.40;0.40;;;;;;;;;;5013158;28;20557;-81
2023/03/29 14:27:29;;;;;;;0.40;0.40;;;;;;;;;;5015692;28;20192;-82
2023/03/29 14:29:55;;;;;;;0.30;0.30;;;;;;;;;;5022783;28;20237;-82
2023/03/29 14:32:28;;;;;;;0.40;0.40;;;;;;;;;;5032225;28;20172;-82
2023/03/29 14:34:54;;;;;;;0.40;0.40;;;;;;;;;;5021014;28;20235;-83
2023/03/29 14:37:25;;;;;;;0.40;0.40;;;;;;;;;;5018881;28;20192;-83
2023/03/29 14:39:51;;;;;;;0.40;0.40;;;;;;;;;;5026159;28;20187;-83
2023/03/29 14:42:20;;;;;;;0.50;0.50;;;;;;;;;;5033610;28;20190;-81
2023/03/29 14:44:47;;;;;;;0.40;0.40;;;;;;;;;;5005531;28;20725;-83
2023/03/29 14:47:16;;;;;;;0.40;0.40;;;;;;;;;;5027685;28;20190;-84
2023/03/29 14:49:43;;;;;;;0.43;0.43;;;;;;;;;;5020969;28;20184;-85
2023/03/29 14:52:10;;;;;;;0.43;0.43;;;;;;;;;;5023689;28;20177;-85